sensor_id;sensor_type;location;lat;lon;timestamp;pressure;altitude;pressure_sealevel;temperature;humidity
69574;BME280;62840;52.366;5.980;2023-02-01T00:00:46;101742.56;;;5.40;69.68
69574;BME280;62840;52.366;5.980;2023-02-01T00:03:12;101742.56;;;5.40;69.80
69574;BME280;62840;52.366;5.980;2023-02-01T00:05:38;101749.56;;;5.41;69.51
69574;BME280;62840;52.366;5.980;2023-02-01T00:08:04;101737.28;;;5.40;69.50
69574;BME280;62840;52.366;5.980;2023-02-01T00:10:30;101738.97;;;5.41;69.69
69574;BME280;62840;52.366;5.980;2023-02-01T00:12:55;101742.56;;;5.40;69.52
69574;BME280;62840;52.366;5.980;2023-02-01T00:15:21;101742.56;;;5.40;69.72
69574;BME280;62840;52.366;5.980;2023-02-01T00:17:52;101743.47;;;5.39;69.82
69574;BME280;62840;52.366;5.980;2023-02-01T00:20:18;101741.63;;;5.41;69.54
69574;BME280;62840;52.366;5.980;2023-02-01T00:22:44;101738.06;;;5.42;69.67
69574;BME280;62840;52.366;5.980;2023-02-01T00:25:10;101742.34;;;5.44;69.66
69574;BME280;62840;52.366;5.980;2023-02-01T00:27:36;101747.53;;;5.46;69.61
69574;BME280;62840;52.366;5.980;2023-02-01T00:30:02;101745.69;;;5.48;69.49
69574;BME280;62840;52.366;5.980;2023-02-01T00:32:28;101731.56;;;5.49;69.55
69574;BME280;62840;52.366;5.980;2023-02-01T00:34:56;101728.06;;;5.49;69.76
69574;BME280;62840;52.366;5.980;2023-02-01T00:37:22;101722.66;;;5.50;69.56
69574;BME280;62840;52.366;5.980;2023-02-01T00:39:48;101728.97;;;5.47;69.52
69574;BME280;62840;52.366;5.980;2023-02-01T00:42:14;101724.53;;;5.48;69.76
69574;BME280;62840;52.366;5.980;2023-02-01T00:44:39;101710.38;;;5.49;69.69
69574;BME280;62840;52.366;5.980;2023-02-01T00:47:05;101735.84;;;5.52;69.64
69574;BME280;62840;52.366;5.980;2023-02-01T00:49:31;101754.28;;;5.53;69.78
69574;BME280;62840;52.366;5.980;2023-02-01T00:51:59;101757.72;;;5.55;69.83
69574;BME280;62840;52.366;5.980;2023-02-01T00:54:25;101748.84;;;5.56;69.81
69574;BME280;62840;52.366;5.980;2023-02-01T00:56:51;101739.06;;;5.58;69.81
69574;BME280;62840;52.366;5.980;2023-02-01T00:59:16;101745.13;;;5.60;69.85
69574;BME280;62840;52.366;5.980;2023-02-01T01:01:42;101744.28;;;5.60;69.70
69574;BME280;62840;52.366;5.980;2023-02-01T01:04:08;101739.84;;;5.60;69.57
69574;BME280;62840;52.366;5.980;2023-02-01T01:06:34;101719.53;;;5.61;69.65
69574;BME280;62840;52.366;5.980;2023-02-01T01:09:04;101711.53;;;5.62;69.48
69574;BME280;62840;52.366;5.980;2023-02-01T01:11:34;101713.22;;;5.63;69.47
69574;BME280;62840;52.366;5.980;2023-02-01T01:14:01;101704.38;;;5.64;69.65
69574;BME280;62840;52.366;5.980;2023-02-01T01:16:30;101701.78;;;5.63;69.56
69574;BME280;62840;52.366;5.980;2023-02-01T01:18:57;101695.66;;;5.62;69.42
69574;BME280;62840;52.366;5.980;2023-02-01T01:21:24;101700.00;;;5.63;69.59
69574;BME280;62840;52.366;5.980;2023-02-01T01:23:50;101699.94;;;5.65;69.86
69574;BME280;62840;52.366;5.980;2023-02-01T01:26:20;101702.63;;;5.63;69.59
69574;BME280;62840;52.366;5.980;2023-02-01T01:28:47;101705.28;;;5.63;69.65
69574;BME280;62840;52.366;5.980;2023-02-01T01:31:14;101685.06;;;5.62;69.67
69574;BME280;62840;52.366;5.980;2023-02-01T01:33:42;101679.88;;;5.59;69.73
69574;BME280;62840;52.366;5.980;2023-02-01T01:36:09;101688.63;;;5.61;69.54
69574;BME280;62840;52.366;5.980;2023-02-01T01:38:35;101693.91;;;5.61;69.73
69574;BME280;62840;52.366;5.980;2023-02-01T01:41:01;101686.91;;;5.60;69.73
69574;BME280;62840;52.366;5.980;2023-02-01T01:43:54;101697.50;;;5.60;69.60
69574;BME280;62840;52.366;5.980;2023-02-01T01:46:23;101693.13;;;5.59;69.72
69574;BME280;62840;52.366;5.980;2023-02-01T01:48:56;101684.34;;;5.59;69.91
69574;BME280;62840;52.366;5.980;2023-02-01T01:51:28;101687.03;;;5.57;69.69
69574;BME280;62840;52.366;5.980;2023-02-01T01:54:02;101694.06;;;5.58;69.52
69574;BME280;62840;52.366;5.980;2023-02-01T01:56:33;101688.63;;;5.61;69.59
69574;BME280;62840;52.366;5.980;2023-02-01T01:59:03;101683.31;;;5.61;69.78
69574;BME280;62840;52.366;5.980;2023-02-01T02:01:30;101692.91;;;5.64;69.80
69574;BME280;62840;52.366;5.980;2023-02-01T02:03:57;101688.41;;;5.66;69.63
69574;BME280;62840;52.366;5.980;2023-02-01T02:06:32;101681.19;;;5.70;69.75
69574;BME280;62840;52.366;5.980;2023-02-01T02:09:03;101668.56;;;5.75;69.67
69574;BME280;62840;52.366;5.980;2023-02-01T02:11:29;101662.25;;;5.77;69.44
69574;BME280;62840;52.366;5.980;2023-02-01T02:13:55;101657.69;;;5.81;69.62
69574;BME280;62840;52.366;5.980;2023-02-01T02:16:39;101654.81;;;5.85;69.29
69574;BME280;62840;52.366;5.980;2023-02-01T02:23:11;101637.59;;;5.94;69.29
69574;BME280;62840;52.366;5.980;2023-02-01T02:26:18;101634.97;;;5.94;69.30
69574;BME280;62840;52.366;5.980;2023-02-01T02:32:24;101640.88;;;5.99;69.22
69574;BME280;62840;52.366;5.980;2023-02-01T02:35:21;101635.41;;;6.02;68.84
69574;BME280;62840;52.366;5.980;2023-02-01T02:38:02;101632.47;;;6.08;68.98
69574;BME280;62840;52.366;5.980;2023-02-01T02:40:42;101626.91;;;6.13;69.07
69574;BME280;62840;52.366;5.980;2023-02-01T02:43:20;101624.19;;;6.15;68.96
69574;BME280;62840;52.366;5.980;2023-02-01T02:45:51;101622.34;;;6.17;69.20
69574;BME280;62840;52.366;5.980;2023-02-01T02:48:26;101620.38;;;6.20;69.02
69574;BME280;62840;52.366;5.980;2023-02-01T02:51:07;101610.47;;;6.24;69.01
69574;BME280;62840;52.366;5.980;2023-02-01T02:53:41;101613.97;;;6.24;68.99
69574;BME280;62840;52.366;5.980;2023-02-01T02:56:15;101609.53;;;6.25;69.12
69574;BME280;62840;52.366;5.980;2023-02-01T02:58:45;101598.88;;;6.26;69.32
69574;BME280;62840;52.366;5.980;2023-02-01T03:01:12;101602.38;;;6.27;69.33
69574;BME280;62840;52.366;5.980;2023-02-01T03:03:38;101602.28;;;6.28;69.26
69574;BME280;62840;52.366;5.980;2023-02-01T03:06:12;101611.97;;;6.29;69.44
69574;BME280;62840;52.366;5.980;2023-02-01T03:08:40;101604.09;;;6.28;69.16
69574;BME280;62840;52.366;5.980;2023-02-01T03:11:07;101613.84;;;6.27;68.93
69574;BME280;62840;52.366;5.980;2023-02-01T03:13:40;101605.66;;;6.32;69.16
69574;BME280;62840;52.366;5.980;2023-02-01T03:16:15;101594.09;;;6.33;69.20
69574;BME280;62840;52.366;5.980;2023-02-01T03:18:49;101590.53;;;6.34;69.07
69574;BME280;62840;52.366;5.980;2023-02-01T03:21:25;101582.59;;;6.34;69.02
69574;BME280;62840;52.366;5.980;2023-02-01T03:23:57;101589.59;;;6.35;69.09
69574;BME280;62840;52.366;5.980;2023-02-01T03:26:29;101592.16;;;6.37;68.85
69574;BME280;62840;52.366;5.980;2023-02-01T03:29:05;101594.72;;;6.38;69.00
69574;BME280;62840;52.366;5.980;2023-02-01T03:31:36;101599.88;;;6.41;68.79
69574;BME280;62840;52.366;5.980;2023-02-01T03:34:03;101608.59;;;6.43;68.67
69574;BME280;62840;52.366;5.980;2023-02-01T03:36:35;101604.06;;;6.45;68.61
69574;BME280;62840;52.366;5.980;2023-02-01T03:39:09;101596.13;;;6.45;68.65
69574;BME280;62840;52.366;5.980;2023-02-01T03:41:47;101600.47;;;6.46;68.27
69574;BME280;62840;52.366;5.980;2023-02-01T03:44:20;101598.66;;;6.47;68.72
69574;BME280;62840;52.366;5.980;2023-02-01T03:46:52;101601.25;;;6.48;68.60
69574;BME280;62840;52.366;5.980;2023-02-01T03:49:27;101598.53;;;6.50;68.30
69574;BME280;62840;52.366;5.980;2023-02-01T03:52:01;101598.41;;;6.51;68.41
69574;BME280;62840;52.366;5.980;2023-02-01T03:54:29;101586.91;;;6.53;68.41
69574;BME280;62840;52.366;5.980;2023-02-01T03:57:00;101602.63;;;6.56;68.56
69574;BME280;62840;52.366;5.980;2023-02-01T03:59:32;101596.41;;;6.57;68.40
69574;BME280;62840;52.366;5.980;2023-02-01T04:01:58;101598.09;;;6.58;68.49
69574;BME280;62840;52.366;5.980;2023-02-01T04:04:24;101590.16;;;6.58;68.33
69574;BME280;62840;52.366;5.980;2023-02-01T04:06:50;101598.09;;;6.58;68.32
69574;BME280;62840;52.366;5.980;2023-02-01T04:09:18;101601.59;;;6.58;68.46
69574;BME280;62840;52.366;5.980;2023-02-01T04:11:44;101606.91;;;6.58;68.69
69574;BME280;62840;52.366;5.980;2023-02-01T04:14:10;101599.06;;;6.57;68.56
69574;BME280;62840;52.366;5.980;2023-02-01T04:16:36;101597.16;;;6.59;68.35
69574;BME280;62840;52.366;5.980;2023-02-01T04:19:02;101607.59;;;6.62;68.32
69574;BME280;62840;52.366;5.980;2023-02-01T04:21:28;101602.31;;;6.62;68.34
69574;BME280;62840;52.366;5.980;2023-02-01T04:23:54;101598.69;;;6.63;67.92
69574;BME280;62840;52.366;5.980;2023-02-01T04:26:23;101589.66;;;6.67;68.24
69574;BME280;62840;52.366;5.980;2023-02-01T04:28:49;101590.44;;;6.69;68.22
69574;BME280;62840;52.366;5.980;2023-02-01T04:31:15;101590.34;;;6.70;68.28
69574;BME280;62840;52.366;5.980;2023-02-01T04:33:41;101591.38;;;6.68;67.82
69574;BME280;62840;52.366;5.980;2023-02-01T04:36:07;101608.97;;;6.69;68.19
69574;BME280;62840;52.366;5.980;2023-02-01T04:38:33;101615.97;;;6.70;68.15
69574;BME280;62840;52.366;5.980;2023-02-01T04:40:59;101578.97;;;6.68;68.02
69574;BME280;62840;52.366;5.980;2023-02-01T04:43:28;101593.06;;;6.69;68.09
69574;BME280;62840;52.366;5.980;2023-02-01T04:45:53;101590.44;;;6.69;67.96
69574;BME280;62840;52.366;5.980;2023-02-01T04:48:20;101603.69;;;6.69;68.12
69574;BME280;62840;52.366;5.980;2023-02-01T04:50:48;101596.50;;;6.71;68.06
69574;BME280;62840;52.366;5.980;2023-02-01T04:53:14;101579.56;;;6.74;67.86
69574;BME280;62840;52.366;5.980;2023-02-01T04:55:40;101589.25;;;6.75;67.97
69574;BME280;62840;52.366;5.980;2023-02-01T04:58:06;101594.44;;;6.76;68.08
69574;BME280;62840;52.366;5.980;2023-02-01T05:00:35;101582.16;;;6.75;68.01
69574;BME280;62840;52.366;5.980;2023-02-01T05:03:01;101583.84;;;6.76;68.01
69574;BME280;62840;52.366;5.980;2023-02-01T05:05:27;101581.19;;;6.76;67.87
69574;BME280;62840;52.366;5.980;2023-02-01T05:07:53;101576.84;;;6.75;67.85
69574;BME280;62840;52.366;5.980;2023-02-01T05:10:20;101577.69;;;6.76;67.87
69574;BME280;62840;52.366;5.980;2023-02-01T05:12:45;101571.53;;;6.75;67.74
69574;BME280;62840;52.366;5.980;2023-02-01T05:15:11;101565.47;;;6.73;67.86
69574;BME280;62840;52.366;5.980;2023-02-01T05:17:39;101571.88;;;6.69;67.85
69574;BME280;62840;52.366;5.980;2023-02-01T05:20:06;101572.06;;;6.66;67.81
69574;BME280;62840;52.366;5.980;2023-02-01T05:22:33;101559.72;;;6.65;67.66
69574;BME280;62840;52.366;5.980;2023-02-01T05:24:59;101560.66;;;6.64;67.94
69574;BME280;62840;52.366;5.980;2023-02-01T05:27:25;101568.63;;;6.64;67.73
69574;BME280;62840;52.366;5.980;2023-02-01T05:29:50;101556.47;;;6.60;67.72
69574;BME280;62840;52.366;5.980;2023-02-01T05:32:16;101574.25;;;6.58;67.69
69574;BME280;62840;52.366;5.980;2023-02-01T05:34:44;101568.00;;;6.59;67.95
69574;BME280;62840;52.366;5.980;2023-02-01T05:37:10;101568.94;;;6.58;67.52
69574;BME280;62840;52.366;5.980;2023-02-01T05:39:36;101572.19;;;6.63;67.98
69574;BME280;62840;52.366;5.980;2023-02-01T05:42:02;101569.41;;;6.66;67.71
69574;BME280;62840;52.366;5.980;2023-02-01T05:44:28;101575.47;;;6.68;67.94
69574;BME280;62840;52.366;5.980;2023-02-01T05:46:53;101589.47;;;6.70;68.12
69574;BME280;62840;52.366;5.980;2023-02-01T05:49:19;101574.53;;;6.69;68.01
69574;BME280;62840;52.366;5.980;2023-02-01T05:51:47;101575.47;;;6.68;67.82
69574;BME280;62840;52.366;5.980;2023-02-01T05:54:13;101588.53;;;6.71;67.94
69574;BME280;62840;52.366;5.980;2023-02-01T05:56:39;101577.94;;;6.71;67.94
69574;BME280;62840;52.366;5.980;2023-02-01T05:59:05;101572.63;;;6.71;67.83
69574;BME280;62840;52.366;5.980;2023-02-01T06:01:30;101592.91;;;6.72;67.82
69574;BME280;62840;52.366;5.980;2023-02-01T06:03:56;101590.25;;;6.72;67.94
69574;BME280;62840;52.366;5.980;2023-02-01T06:06:22;101585.72;;;6.74;68.08
69574;BME280;62840;52.366;5.980;2023-02-01T06:08:50;101578.53;;;6.76;67.96
69574;BME280;62840;52.366;5.980;2023-02-01T06:11:16;101578.53;;;6.76;67.96
69574;BME280;62840;52.366;5.980;2023-02-01T06:13:41;101589.16;;;6.76;67.92
69574;BME280;62840;52.366;5.980;2023-02-01T06:16:07;101588.22;;;6.77;67.96
69574;BME280;62840;52.366;5.980;2023-02-01T06:18:33;101596.19;;;6.77;67.91
69574;BME280;62840;52.366;5.980;2023-02-01T06:20:59;101582.91;;;6.77;67.86
69574;BME280;62840;52.366;5.980;2023-02-01T06:23:25;101587.28;;;6.78;67.62
69574;BME280;62840;52.366;5.980;2023-02-01T06:25:58;101594.31;;;6.79;67.87
69574;BME280;62840;52.366;5.980;2023-02-01T06:28:26;101586.25;;;6.81;67.86
69574;BME280;62840;52.366;5.980;2023-02-01T06:30:52;101582.75;;;6.80;67.86
69574;BME280;62840;52.366;5.980;2023-02-01T06:33:17;101589.00;;;6.79;67.74
69574;BME280;62840;52.366;5.980;2023-02-01T06:35:43;101600.44;;;6.80;67.81
69574;BME280;62840;52.366;5.980;2023-02-01T06:38:09;101596.00;;;6.80;67.74
69574;BME280;62840;52.366;5.980;2023-02-01T06:40:35;101597.69;;;6.81;67.92
69574;BME280;62840;52.366;5.980;2023-02-01T06:43:04;101594.97;;;6.83;68.00
69574;BME280;62840;52.366;5.980;2023-02-01T06:45:30;101596.78;;;6.82;67.85
69574;BME280;62840;52.366;5.980;2023-02-01T06:47:58;101593.28;;;6.82;67.62
69574;BME280;62840;52.366;5.980;2023-02-01T06:50:24;101592.31;;;6.83;67.78
69574;BME280;62840;52.366;5.980;2023-02-01T06:52:50;101604.53;;;6.85;67.70
69574;BME280;62840;52.366;5.980;2023-02-01T06:55:16;101604.53;;;6.85;67.64
69574;BME280;62840;52.366;5.980;2023-02-01T06:57:41;101616.03;;;6.86;67.90
69574;BME280;62840;52.366;5.980;2023-02-01T07:00:11;101611.56;;;6.86;67.81
69574;BME280;62840;52.366;5.980;2023-02-01T07:02:37;101601.81;;;6.87;67.96
69574;BME280;62840;52.366;5.980;2023-02-01T07:05:04;101609.69;;;6.88;67.62
69574;BME280;62840;52.366;5.980;2023-02-01T07:07:30;101619.53;;;6.86;67.52
69574;BME280;62840;52.366;5.980;2023-02-01T07:09:56;101623.03;;;6.87;67.72
69574;BME280;62840;52.366;5.980;2023-02-01T07:12:21;101629.19;;;6.87;67.90
69574;BME280;62840;52.366;5.980;2023-02-01T07:14:47;101627.50;;;6.86;67.56
69574;BME280;62840;52.366;5.980;2023-02-01T07:17:15;101613.28;;;6.87;67.75
69574;BME280;62840;52.366;5.980;2023-02-01T07:19:41;101607.91;;;6.89;67.72
69574;BME280;62840;52.366;5.980;2023-02-01T07:22:07;101616.69;;;6.89;67.81
69574;BME280;62840;52.366;5.980;2023-02-01T07:24:33;101625.44;;;6.91;67.81
69574;BME280;62840;52.366;5.980;2023-02-01T07:26:59;101627.16;;;6.92;67.74
69574;BME280;62840;52.366;5.980;2023-02-01T07:29:25;101621.84;;;6.92;67.63
69574;BME280;62840;52.366;5.980;2023-02-01T07:31:51;101623.56;;;6.93;67.96
69574;BME280;62840;52.366;5.980;2023-02-01T07:34:19;101631.50;;;6.93;67.80
69574;BME280;62840;52.366;5.980;2023-02-01T07:36:45;101637.75;;;6.92;67.58
69574;BME280;62840;52.366;5.980;2023-02-01T07:39:10;101637.91;;;6.89;67.72
69574;BME280;62840;52.366;5.980;2023-02-01T07:41:36;101627.31;;;6.89;67.57
69574;BME280;62840;52.366;5.980;2023-02-01T07:44:02;101628.25;;;6.88;68.20
69574;BME280;62840;52.366;5.980;2023-02-01T07:46:28;101614.31;;;6.85;67.76
69574;BME280;62840;52.366;5.980;2023-02-01T07:48:53;101609.84;;;6.85;67.79
69574;BME280;62840;52.366;5.980;2023-02-01T07:51:22;101621.41;;;6.84;67.96
69574;BME280;62840;52.366;5.980;2023-02-01T07:53:47;101635.50;;;6.85;67.80
69574;BME280;62840;52.366;5.980;2023-02-01T07:56:14;101631.22;;;6.82;67.62
69574;BME280;62840;52.366;5.980;2023-02-01T07:58:42;101634.81;;;6.81;67.89
69574;BME280;62840;52.366;5.980;2023-02-01T08:01:13;101636.53;;;6.82;68.14
69574;BME280;62840;52.366;5.980;2023-02-01T08:03:40;101633.88;;;6.82;67.88
69574;BME280;62840;52.366;5.980;2023-02-01T08:06:06;101628.66;;;6.81;68.06
69574;BME280;62840;52.366;5.980;2023-02-01T08:08:35;101633.09;;;6.80;67.90
69574;BME280;62840;52.366;5.980;2023-02-01T08:11:02;101632.25;;;6.80;67.89
69574;BME280;62840;52.366;5.980;2023-02-01T08:13:30;101645.41;;;6.81;67.90
69574;BME280;62840;52.366;5.980;2023-02-01T08:15:57;101645.41;;;6.81;68.08
69574;BME280;62840;52.366;5.980;2023-02-01T08:18:24;101651.59;;;6.82;68.10
69574;BME280;62840;52.366;5.980;2023-02-01T08:20:49;101648.06;;;6.81;68.11
69574;BME280;62840;52.366;5.980;2023-02-01T08:23:15;101643.53;;;6.83;68.10
69574;BME280;62840;52.366;5.980;2023-02-01T08:25:44;101640.75;;;6.86;67.81
69574;BME280;62840;52.366;5.980;2023-02-01T08:28:10;101634.34;;;6.90;68.07
69574;BME280;62840;52.366;5.980;2023-02-01T08:30:36;101626.13;;;6.95;67.73
69574;BME280;62840;52.366;5.980;2023-02-01T08:33:03;101631.25;;;6.98;67.78
69574;BME280;62840;52.366;5.980;2023-02-01T08:35:29;101623.13;;;7.01;67.92
69574;BME280;62840;52.366;5.980;2023-02-01T08:37:54;101627.56;;;7.01;67.74
69574;BME280;62840;52.366;5.980;2023-02-01T08:40:20;101623.03;;;7.03;67.48
69574;BME280;62840;52.366;5.980;2023-02-01T08:42:48;101613.97;;;7.07;67.67
69574;BME280;62840;52.366;5.980;2023-02-01T08:45:14;101608.59;;;7.08;67.60
69574;BME280;62840;52.366;5.980;2023-02-01T08:47:40;101617.47;;;7.07;67.54
69574;BME280;62840;52.366;5.980;2023-02-01T08:50:07;101613.81;;;7.10;67.46
69574;BME280;62840;52.366;5.980;2023-02-01T08:52:34;101615.53;;;7.11;67.44
69574;BME280;62840;52.366;5.980;2023-02-01T08:55:00;101618.94;;;7.13;67.43
69574;BME280;62840;52.366;5.980;2023-02-01T08:57:25;101606.47;;;7.15;67.34
69574;BME280;62840;52.366;5.980;2023-02-01T08:59:54;101609.84;;;7.17;67.25
69574;BME280;62840;52.366;5.980;2023-02-01T09:02:19;101613.28;;;7.19;67.45
69574;BME280;62840;52.366;5.980;2023-02-01T09:04:45;101603.28;;;7.24;67.31
69574;BME280;62840;52.366;5.980;2023-02-01T09:07:11;101600.44;;;7.27;67.46
69574;BME280;62840;52.366;5.980;2023-02-01T09:09:37;101601.22;;;7.29;67.30
69574;BME280;62840;52.366;5.980;2023-02-01T09:12:03;101602.16;;;7.28;67.24
69574;BME280;62840;52.366;5.980;2023-02-01T09:14:29;101594.09;;;7.30;67.42
69574;BME280;62840;52.366;5.980;2023-02-01T09:16:58;101596.69;;;7.31;67.36
69574;BME280;62840;52.366;5.980;2023-02-01T09:19:24;101595.72;;;7.32;67.52
69574;BME280;62840;52.366;5.980;2023-02-01T09:21:50;101605.41;;;7.33;67.31
69574;BME280;62840;52.366;5.980;2023-02-01T09:24:15;101600.13;;;7.33;67.20
69574;BME280;62840;52.366;5.980;2023-02-01T09:26:41;101597.47;;;7.33;67.01
69574;BME280;62840;52.366;5.980;2023-02-01T09:29:07;101593.94;;;7.33;67.00
69574;BME280;62840;52.366;5.980;2023-02-01T09:31:33;101601.81;;;7.34;67.06
69574;BME280;62840;52.366;5.980;2023-02-01T09:34:01;101598.22;;;7.36;67.01
69574;BME280;62840;52.366;5.980;2023-02-01T09:36:27;101585.88;;;7.34;67.03
69574;BME280;62840;52.366;5.980;2023-02-01T09:38:53;101599.00;;;7.38;67.32
69574;BME280;62840;52.366;5.980;2023-02-01T09:41:29;101595.38;;;7.39;67.31
69574;BME280;62840;52.366;5.980;2023-02-01T09:44:09;101597.19;;;7.38;67.18
69574;BME280;62840;52.366;5.980;2023-02-01T09:46:53;101598.00;;;7.40;67.16
69574;BME280;62840;52.366;5.980;2023-02-01T09:49:27;101587.28;;;7.42;67.25
69574;BME280;62840;52.366;5.980;2023-02-01T09:51:55;101576.66;;;7.42;67.16
69574;BME280;62840;52.366;5.980;2023-02-01T09:54:25;101588.22;;;7.41;67.04
69574;BME280;62840;52.366;5.980;2023-02-01T09:56:58;101584.63;;;7.42;67.16
69574;BME280;62840;52.366;5.980;2023-02-01T09:59:34;101587.28;;;7.42;67.32
69574;BME280;62840;52.366;5.980;2023-02-01T10:02:12;101588.22;;;7.41;67.48
69574;BME280;62840;52.366;5.980;2023-02-01T10:04:46;101580.44;;;7.38;67.80
69574;BME280;62840;52.366;5.980;2023-02-01T10:07:23;101587.78;;;7.32;68.22
69574;BME280;62840;52.366;5.980;2023-02-01T10:10:01;101568.63;;;7.27;68.72
69574;BME280;62840;52.366;5.980;2023-02-01T10:15:39;101583.50;;;7.14;69.13
69574;BME280;62840;52.366;5.980;2023-02-01T10:18:22;101574.97;;;7.09;69.62
69574;BME280;62840;52.366;5.980;2023-02-01T10:21:09;101571.72;;;7.04;69.70
69574;BME280;62840;52.366;5.980;2023-02-01T10:27:00;101582.66;;;6.98;70.02
69574;BME280;62840;52.366;5.980;2023-02-01T10:29:34;101587.28;;;6.94;70.16
69574;BME280;62840;52.366;5.980;2023-02-01T10:32:03;101585.56;;;6.93;70.42
69574;BME280;62840;52.366;5.980;2023-02-01T10:34:37;101583.84;;;6.92;70.59
69574;BME280;62840;52.366;5.980;2023-02-01T10:37:15;101587.59;;;6.88;70.51
69574;BME280;62840;52.366;5.980;2023-02-01T10:39:52;101589.53;;;6.86;70.98
69574;BME280;62840;52.366;5.980;2023-02-01T10:42:20;101588.81;;;6.82;70.95
69574;BME280;62840;52.366;5.980;2023-02-01T10:44:49;101597.88;;;6.78;71.28
69574;BME280;62840;52.366;5.980;2023-02-01T10:47:15;101591.03;;;6.74;71.36
69574;BME280;62840;52.366;5.980;2023-02-01T10:49:47;101580.41;;;6.74;71.41
69574;BME280;62840;52.366;5.980;2023-02-01T10:52:31;101575.13;;;6.74;71.47
69574;BME280;62840;52.366;5.980;2023-02-01T10:55:28;101570.00;;;6.71;71.51
69574;BME280;62840;52.366;5.980;2023-02-01T10:57:59;101582.47;;;6.69;71.65
69574;BME280;62840;52.366;5.980;2023-02-01T11:00:26;101571.88;;;6.69;71.77
69574;BME280;62840;52.366;5.980;2023-02-01T11:02:53;101575.22;;;6.72;71.55
69574;BME280;62840;52.366;5.980;2023-02-01T11:05:20;101572.56;;;6.72;71.40
69574;BME280;62840;52.366;5.980;2023-02-01T11:07:51;101559.22;;;6.74;71.71
69574;BME280;62840;52.366;5.980;2023-02-01T11:10:35;101554.69;;;6.76;71.44
69574;BME280;62840;52.366;5.980;2023-02-01T11:13:03;101549.38;;;6.76;71.42
69574;BME280;62840;52.366;5.980;2023-02-01T11:15:30;101544.84;;;6.78;71.71
69574;BME280;62840;52.366;5.980;2023-02-01T11:17:56;101535.97;;;6.79;71.33
69574;BME280;62840;52.366;5.980;2023-02-01T11:20:37;101536.72;;;6.81;71.44
69574;BME280;62840;52.366;5.980;2023-02-01T11:23:13;101542.03;;;6.81;71.25
69574;BME280;62840;52.366;5.980;2023-02-01T11:25:47;101542.91;;;6.82;71.25
69574;BME280;62840;52.366;5.980;2023-02-01T11:28:16;101537.50;;;6.83;71.27
69574;BME280;62840;52.366;5.980;2023-02-01T11:30:45;101533.06;;;6.84;71.00
69574;BME280;62840;52.366;5.980;2023-02-01T11:33:15;101538.38;;;6.84;71.17
69574;BME280;62840;52.366;5.980;2023-02-01T11:35:44;101526.88;;;6.83;71.13
69574;BME280;62840;52.366;5.980;2023-02-01T11:38:20;101534.75;;;6.85;71.32
69574;BME280;62840;52.366;5.980;2023-02-01T11:40:47;101525.00;;;6.85;71.18
69574;BME280;62840;52.366;5.980;2023-02-01T11:43:18;101524.06;;;6.86;71.17
69574;BME280;62840;52.366;5.980;2023-02-01T11:45:57;101522.97;;;6.90;70.88
69574;BME280;62840;52.366;5.980;2023-02-01T11:48:25;101522.59;;;6.97;70.84
69574;BME280;62840;52.366;5.980;2023-02-01T11:51:01;101520.56;;;7.02;70.88
69574;BME280;62840;52.366;5.980;2023-02-01T11:53:56;101520.19;;;7.08;70.73
69574;BME280;62840;52.366;5.980;2023-02-01T11:56:36;101530.66;;;7.11;70.56
69574;BME280;62840;52.366;5.980;2023-02-01T11:59:22;101533.03;;;7.16;70.28
69574;BME280;62840;52.366;5.980;2023-02-01T12:02:16;101521.19;;;7.21;70.31
69574;BME280;62840;52.366;5.980;2023-02-01T12:05:19;101506.63;;;7.28;70.44
69574;BME280;62840;52.366;5.980;2023-02-01T12:08:09;101517.09;;;7.31;70.54
69574;BME280;62840;52.366;5.980;2023-02-01T12:10:58;101520.31;;;7.37;70.28
69574;BME280;62840;52.366;5.980;2023-02-01T12:13:49;101525.53;;;7.38;70.24
69574;BME280;62840;52.366;5.980;2023-02-01T12:16:29;101519.22;;;7.41;70.06
69574;BME280;62840;52.366;5.980;2023-02-01T12:19:22;101512.97;;;7.42;70.03
69574;BME280;62840;52.366;5.980;2023-02-01T12:25:13;101524.19;;;7.47;69.92
69574;BME280;62840;52.366;5.980;2023-02-01T12:28:13;101517.72;;;7.51;69.62
69574;BME280;62840;52.366;5.980;2023-02-01T12:30:59;101513.97;;;7.55;69.91
69574;BME280;62840;52.366;5.980;2023-02-01T12:33:52;101513.59;;;7.61;70.03
69574;BME280;62840;52.366;5.980;2023-02-01T12:36:37;101512.38;;;7.67;69.77
69574;BME280;62840;52.366;5.980;2023-02-01T12:39:20;101521.22;;;7.67;69.68
69574;BME280;62840;52.366;5.980;2023-02-01T12:41:53;101517.50;;;7.70;69.45
69574;BME280;62840;52.366;5.980;2023-02-01T12:44:35;101510.31;;;7.72;69.35
69574;BME280;62840;52.366;5.980;2023-02-01T12:47:16;101517.25;;;7.74;69.34
69574;BME280;62840;52.366;5.980;2023-02-01T12:49:54;101512.78;;;7.75;69.22
69574;BME280;62840;52.366;5.980;2023-02-01T12:52:32;101519.88;;;7.74;69.38
69574;BME280;62840;52.366;5.980;2023-02-01T12:55:10;101511.94;;;7.74;69.54
69574;BME280;62840;52.366;5.980;2023-02-01T12:57:46;101507.38;;;7.77;69.67
69574;BME280;62840;52.366;5.980;2023-02-01T13:00:27;101524.25;;;7.75;69.79
69574;BME280;62840;52.366;5.980;2023-02-01T13:03:01;101507.53;;;7.73;69.62
69574;BME280;62840;52.366;5.980;2023-02-01T13:05:46;101505.84;;;7.72;69.81
69574;BME280;62840;52.366;5.980;2023-02-01T13:08:21;101517.50;;;7.70;69.74
69574;BME280;62840;52.366;5.980;2023-02-01T13:10:54;101514.00;;;7.69;70.01
69574;BME280;62840;52.366;5.980;2023-02-01T13:13:29;101518.34;;;7.70;69.84
69574;BME280;62840;52.366;5.980;2023-02-01T13:16:09;101506.88;;;7.70;69.99
69574;BME280;62840;52.366;5.980;2023-02-01T13:18:43;101514.78;;;7.71;69.74
69574;BME280;62840;52.366;5.980;2023-02-01T13:21:17;101511.34;;;7.69;69.87
69574;BME280;62840;52.366;5.980;2023-02-01T13:23:48;101525.56;;;7.68;70.14
69574;BME280;62840;52.366;5.980;2023-02-01T13:26:16;101538.91;;;7.67;70.19
69574;BME280;62840;52.366;5.980;2023-02-01T13:28:45;101524.91;;;7.65;70.43
69574;BME280;62840;52.366;5.980;2023-02-01T13:31:30;101538.25;;;7.63;70.45
69574;BME280;62840;52.366;5.980;2023-02-01T13:34:36;101537.28;;;7.64;70.60